Time;durP1;ratioP1;P1;durP2;ratioP2;P2;SDS_P1;SDS_P2;PMS_P1;PMS_P2;Temp;Humidity;BMP_temperature;BMP_pressure;BME280_temperature;BME280_humidity;BME280_pressure;Samples;Min_cycle;Max_cycle;Signal;HPM_P1;HPM_P2
2023/12/07 00:00:24;;;;;;;;;;;;;;;;;;5057118;28;20027;-81
2023/12/07 00:02:50;;;;;;;;;;;;;;;;;;5056449;28;19924;-81
2023/12/07 00:05:16;;;;;;;;;;;;;;;;;;5057082;28;20393;-81
2023/12/07 00:07:42;;;;;;;;;;;;;;;;;;5057534;28;19931;-82
2023/12/07 00:10:09;;;;;;;;;;;;;;;;;;5057778;28;19925;-83
2023/12/07 00:12:35;;;;;;;;;;;;;;;;;;5056704;28;19931;-81
2023/12/07 00:15:02;;;;;;;;;;;;;;;;;;5057161;28;19924;-81
2023/12/07 00:17:28;;;;;;;;;;;;;;;;;;5056215;28;19963;-80
2023/12/07 00:19:55;;;;;;;;;;;;;;;;;;5057165;28;19946;-81
2023/12/07 00:22:21;;;;;;;;;;;;;;;;;;5057392;28;19929;-80
2023/12/07 00:24:48;;;;;;;;;;;;;;;;;;5057171;28;19924;-81
2023/12/07 00:27:14;;;;;;;;;;;;;;;;;;5055573;28;20019;-80
2023/12/07 00:29:41;;;;;;;;;;;;;;;;;;5057472;28;20417;-80
2023/12/07 00:32:11;;;;;;;;;;;;;;;;;;5056844;28;19925;-80
2023/12/07 00:34:38;;;;;;;;;;;;;;;;;;5056860;28;19925;-81
2023/12/07 00:37:04;;;;;;;;;;;;;;;;;;5056014;28;20317;-82
2023/12/07 00:39:31;;;;;;;;;;;;;;;;;;5056130;28;19929;-82
2023/12/07 00:41:57;;;;;;;;;;;;;;;;;;5057101;28;20362;-81
2023/12/07 00:44:24;;;;;;;;;;;;;;;;;;5057956;28;19924;-81
2023/12/07 00:46:50;;;;;;;;;;;;;;;;;;5057394;28;19931;-82
2023/12/07 00:49:16;;;;;;;;;;;;;;;;;;5057519;28;19925;-82
2023/12/07 00:51:43;;;;;;;;;;;;;;;;;;5056017;28;19971;-81
2023/12/07 00:54:09;;;;;;;;;;;;;;;;;;5058055;28;20011;-81
2023/12/07 00:56:37;;;;;;;;;;;;;;;;;;5056800;28;20019;-81
2023/12/07 00:59:03;;;;;;;;;;;;;;;;;;5056484;28;19932;-81
2023/12/07 01:01:29;;;;;;;;;;;;;;;;;;5053956;28;19925;-81
2023/12/07 01:03:56;;;;;;;;;;;;;;;;;;5056822;28;19931;-81
2023/12/07 01:06:22;;;;;;;;;;;;;;;;;;5055721;28;20068;-81
2023/12/07 01:08:48;;;;;;;;;;;;;;;;;;5056760;28;20305;-82
2023/12/07 01:11:14;;;;;;;;;;;;;;;;;;5056812;28;19935;-81
2023/12/07 01:13:41;;;;;;;;;;;;;;;;;;5056672;28;19924;-81
2023/12/07 01:16:07;;;;;;;;;;;;;;;;;;5056559;28;19947;-81
2023/12/07 01:18:33;;;;;;;;;;;;;;;;;;5056924;28;20370;-81
2023/12/07 01:21:00;;;;;;;;;;;;;;;;;;5054581;28;20379;-81
2023/12/07 01:23:26;;;;;;;;;;;;;;;;;;5056541;28;19961;-81
2023/12/07 01:25:52;;;;;;;;;;;;;;;;;;5055978;28;20012;-81
2023/12/07 01:28:18;;;;;;;;;;;;;;;;;;5055764;28;20000;-80
2023/12/07 01:30:45;;;;;;;;;;;;;;;;;;5055629;28;19932;-81
2023/12/07 01:33:11;;;;;;;;;;;;;;;;;;5057475;28;20458;-81
2023/12/07 01:35:37;;;;;;;;;;;;;;;;;;5056107;28;19924;-82
2023/12/07 01:38:04;;;;;;;;;;;;;;;;;;5056826;28;20027;-80
2023/12/07 01:40:30;;;;;;;;;;;;;;;;;;5056115;28;20046;-81
2023/12/07 01:42:56;;;;;;;;;;;;;;;;;;5056844;28;20457;-80
2023/12/07 01:45:22;;;;;;;;;;;;;;;;;;5057046;28;20015;-81
2023/12/07 01:47:49;;;;;;;;;;;;;;;;;;5056944;28;20011;-81
2023/12/07 01:50:15;;;;;;;;;;;;;;;;;;5056636;28;20019;-82
2023/12/07 01:52:42;;;;;;;;;;;;;;;;;;5055974;28;20406;-82
2023/12/07 01:55:08;;;;;;;;;;;;;;;;;;5055100;28;19925;-81
2023/12/07 01:57:34;;;;;;;;;;;;;;;;;;5056275;28;19932;-81
2023/12/07 02:00:01;;;;;;;;;;;;;;;;;;5055914;28;20016;-82
2023/12/07 02:02:27;;;;;;;;;;;;;;;;;;5055261;28;19978;-82
2023/12/07 02:04:54;;;;;;;;;;;;;;;;;;5056055;28;20012;-82
2023/12/07 02:07:20;;;;;;;;;;;;;;;;;;5055550;28;20019;-81
2023/12/07 02:09:46;;;;;;;;;;;;;;;;;;5054386;28;20449;-81
2023/12/07 02:12:12;;;;;;;;;;;;;;;;;;5055346;28;19925;-82
2023/12/07 02:14:39;;;;;;;;;;;;;;;;;;5054635;28;19931;-82
2023/12/07 02:17:05;;;;;;;;;;;;;;;;;;5055272;28;20034;-82
2023/12/07 02:19:31;;;;;;;;;;;;;;;;;;5056073;28;19931;-81
2023/12/07 02:21:58;;;;;;;;;;;;;;;;;;5053884;28;19925;-81
2023/12/07 02:24:24;;;;;;;;;;;;;;;;;;5056080;28;20445;-81
2023/12/07 02:26:50;;;;;;;;;;;;;;;;;;5055260;28;20003;-80
2023/12/07 02:29:17;;;;;;;;;;;;;;;;;;5056519;28;19924;-81
2023/12/07 02:31:43;;;;;;;;;;;;;;;;;;5053828;28;19947;-81
2023/12/07 02:34:10;;;;;;;;;;;;;;;;;;5054147;28;19932;-82
2023/12/07 02:36:36;;;;;;;;;;;;;;;;;;5055381;28;20453;-81
2023/12/07 02:39:03;;;;;;;;;;;;;;;;;;5055595;28;19991;-81
2023/12/07 02:41:29;;;;;;;;;;;;;;;;;;5059470;28;19925;-81
2023/12/07 02:43:57;;;;;;;;;;;;;;;;;;5060080;28;19984;-81
2023/12/07 02:46:23;;;;;;;;;;;;;;;;;;5058579;28;20000;-80
2023/12/07 02:48:50;;;;;;;;;;;;;;;;;;5059812;28;20298;-82
2023/12/07 02:51:16;;;;;;;;;;;;;;;;;;5059110;28;20299;-81
2023/12/07 02:53:42;;;;;;;;;;;;;;;;;;5060736;28;19948;-81
2023/12/07 02:56:09;;;;;;;;;;;;;;;;;;5060228;28;19980;-80
2023/12/07 02:58:37;;;;;;;;;;;;;;;;;;5059747;28;19931;-81
2023/12/07 03:01:05;;;;;;;;;;;;;;;;;;5059037;28;19932;-81
2023/12/07 03:03:34;;;;;;;;;;;;;;;;;;5059997;28;20008;-81
2023/12/07 03:06:00;;;;;;;;;;;;;;;;;;5059150;28;19932;-81
2023/12/07 03:08:28;;;;;;;;;;;;;;;;;;5060051;28;20016;-81
2023/12/07 03:10:57;;;;;;;;;;;;;;;;;;5059895;28;19983;-81
2023/12/07 03:13:25;;;;;;;;;;;;;;;;;;5060079;28;19975;-81
2023/12/07 03:15:51;;;;;;;;;;;;;;;;;;5057761;28;19925;-82
2023/12/07 03:18:18;;;;;;;;;;;;;;;;;;5059611;28;20350;-81
2023/12/07 03:20:44;;;;;;;;;;;;;;;;;;5058821;28;19978;-82
2023/12/07 03:23:10;;;;;;;;;;;;;;;;;;5059278;28;19972;-81
2023/12/07 03:25:36;;;;;;;;;;;;;;;;;;5059309;28;20008;-81
2023/12/07 03:28:03;;;;;;;;;;;;;;;;;;5058113;28;19929;-81
2023/12/07 03:30:29;;;;;;;;;;;;;;;;;;5059364;28;19980;-80
2023/12/07 03:32:55;;;;;;;;;;;;;;;;;;5059790;28;20019;-81
2023/12/07 03:35:22;;;;;;;;;;;;;;;;;;5058434;28;19976;-81
2023/12/07 03:37:48;;;;;;;;;;;;;;;;;;5059145;28;20023;-81
2023/12/07 03:40:14;;;;;;;;;;;;;;;;;;5059448;28;20348;-80
2023/12/07 03:42:40;;;;;;;;;;;;;;;;;;5059266;28;19925;-81
2023/12/07 03:45:07;;;;;;;;;;;;;;;;;;5057903;28;19925;-81
2023/12/07 03:47:33;;;;;;;;;;;;;;;;;;5060336;28;20059;-81
2023/12/07 03:49:59;;;;;;;;;;;;;;;;;;5058679;28;19925;-80
2023/12/07 03:52:25;;;;;;;;;;;;;;;;;;5058064;28;20019;-80
2023/12/07 03:54:52;;;;;;;;;;;;;;;;;;5058409;28;19932;-82
2023/12/07 03:57:18;;;;;;;;;;;;;;;;;;5058595;28;20353;-81
2023/12/07 03:59:46;;;;;;;;;;;;;;;;;;5058723;28;20007;-81
2023/12/07 04:02:13;;;;;;;;;;;;;;;;;;5059079;28;19924;-81
2023/12/07 04:04:39;;;;;;;;;;;;;;;;;;5059569;28;20039;-81
2023/12/07 04:07:05;;;;;;;;;;;;;;;;;;5057213;28;19978;-82
2023/12/07 04:09:32;;;;;;;;;;;;;;;;;;5057330;28;19925;-81
2023/12/07 04:11:58;;;;;;;;;;;;;;;;;;5058523;28;20035;-82
2023/12/07 04:14:24;;;;;;;;;;;;;;;;;;5059010;28;20016;-79
2023/12/07 04:16:52;;;;;;;;;;;;;;;;;;5058121;28;19987;-81
2023/12/07 04:19:18;;;;;;;;;;;;;;;;;;5058851;28;20015;-82
2023/12/07 04:21:45;;;;;;;;;;;;;;;;;;5058549;28;20451;-82
2023/12/07 04:24:11;;;;;;;;;;;;;;;;;;5058717;28;19924;-82
2023/12/07 04:26:38;;;;;;;;;;;;;;;;;;5056820;28;20394;-80
2023/12/07 04:29:04;;;;;;;;;;;;;;;;;;5058990;28;20027;-82
2023/12/07 04:31:31;;;;;;;;;;;;;;;;;;5057219;28;19924;-81
2023/12/07 04:33:57;;;;;;;;;;;;;;;;;;5058352;28;20031;-80
2023/12/07 04:36:24;;;;;;;;;;;;;;;;;;5058036;28;20008;-81
2023/12/07 04:38:50;;;;;;;;;;;;;;;;;;5057947;28;20011;-81
2023/12/07 04:41:16;;;;;;;;;;;;;;;;;;5057724;28;20008;-81
2023/12/07 04:43:42;;;;;;;;;;;;;;;;;;5058892;28;19996;-81
2023/12/07 04:46:09;;;;;;;;;;;;;;;;;;5057710;28;20008;-82
2023/12/07 04:48:35;;;;;;;;;;;;;;;;;;5057913;28;19925;-81
2023/12/07 04:51:01;;;;;;;;;;;;;;;;;;5056894;28;19932;-80
2023/12/07 04:53:28;;;;;;;;;;;;;;;;;;5058331;28;20354;-81
2023/12/07 04:55:54;;;;;;;;;;;;;;;;;;5058075;28;20007;-81
2023/12/07 04:58:20;;;;;;;;;;;;;;;;;;5057443;28;20118;-80
2023/12/07 05:00:48;;;;;;;;;;;;;;;;;;5057545;28;20430;-82
2023/12/07 05:03:14;;;;;;;;;;;;;;;;;;5057198;28;19988;-81
2023/12/07 05:05:42;;;;;;;;;;;;;;;;;;5057077;28;20148;-81
2023/12/07 05:08:09;;;;;;;;;;;;;;;;;;5058117;28;20007;-81
2023/12/07 05:10:35;;;;;;;;;;;;;;;;;;5056999;28;19948;-81
2023/12/07 05:13:01;;;;;;;;;;;;;;;;;;5057024;28;19964;-81
2023/12/07 05:15:28;;;;;;;;;;;;;;;;;;5057551;28;20020;-81
2023/12/07 05:17:54;;;;;;;;;;;;;;;;;;5058710;28;20020;-82
2023/12/07 05:20:24;;;;;;;;;;;;;;;;;;5057510;28;20457;-82
2023/12/07 05:22:50;;;;;;;;;;;;;;;;;;5056903;28;19924;-82
2023/12/07 05:25:16;;;;;;;;;;;;;;;;;;5057487;28;20019;-82
2023/12/07 05:27:42;;;;;;;;;;;;;;;;;;5056974;28;20295;-81
2023/12/07 05:30:09;;;;;;;;;;;;;;;;;;5057270;28;19975;-81
2023/12/07 05:32:35;;;;;;;;;;;;;;;;;;5055643;28;19924;-81
2023/12/07 05:35:02;;;;;;;;;;;;;;;;;;5058032;28;20363;-81
2023/12/07 05:37:28;;;;;;;;;;;;;;;;;;5056439;28;19924;-81
2023/12/07 05:39:54;;;;;;;;;;;;;;;;;;5056915;28;19968;-81
2023/12/07 05:42:21;;;;;;;;;;;;;;;;;;5054655;28;19932;-82
2023/12/07 05:44:52;;;;;;;;;;;;;;;;;;5057695;28;20031;-80
2023/12/07 05:47:19;;;;;;;;;;;;;;;;;;5057016;28;20399;-81
2023/12/07 05:49:45;;;;;;;;;;;;;;;;;;5057298;28;19984;-81
2023/12/07 05:52:11;;;;;;;;;;;;;;;;;;5057345;28;20012;-81
2023/12/07 05:54:38;;;;;;;;;;;;;;;;;;5058074;28;20354;-80
2023/12/07 05:57:05;;;;;;;;;;;;;;;;;;5056159;28;19925;-81
2023/12/07 05:59:32;;;;;;;;;;;;;;;;;;5057701;28;19979;-80
2023/12/07 06:01:58;;;;;;;;;;;;;;;;;;5055802;28;19967;-82
2023/12/07 06:04:24;;;;;;;;;;;;;;;;;;5057171;28;20015;-82
2023/12/07 06:06:51;;;;;;;;;;;;;;;;;;5055017;28;19925;-81
2023/12/07 06:09:17;;;;;;;;;;;;;;;;;;5056161;28;19928;-82
2023/12/07 06:11:43;;;;;;;;;;;;;;;;;;5054626;28;19932;-81
2023/12/07 06:14:10;;;;;;;;;;;;;;;;;;5054819;28;19925;-81
2023/12/07 06:16:37;;;;;;;;;;;;;;;;;;5056355;28;20012;-83
2023/12/07 06:19:04;;;;;;;;;;;;;;;;;;5057174;28;20011;-81
2023/12/07 06:21:31;;;;;;;;;;;;;;;;;;5057227;28;19925;-81
2023/12/07 06:23:58;;;;;;;;;;;;;;;;;;5057358;28;19947;-82
2023/12/07 06:26:24;;;;;;;;;;;;;;;;;;5057133;28;20389;-82
2023/12/07 06:28:51;;;;;;;;;;;;;;;;;;5057787;28;20023;-81
2023/12/07 06:31:19;;;;;;;;;;;;;;;;;;5055463;28;19929;-81
2023/12/07 06:33:46;;;;;;;;;;;;;;;;;;5056305;28;20031;-81
2023/12/07 06:36:12;;;;;;;;;;;;;;;;;;5056894;28;20365;-81
2023/12/07 06:38:38;;;;;;;;;;;;;;;;;;5056868;28;19991;-81
2023/12/07 06:41:05;;;;;;;;;;;;;;;;;;5056458;28;19925;-81
2023/12/07 06:43:31;;;;;;;;;;;;;;;;;;5056262;28;19924;-80
2023/12/07 06:45:57;;;;;;;;;;;;;;;;;;5054377;28;20014;-80
2023/12/07 06:48:24;;;;;;;;;;;;;;;;;;5056125;28;20450;-81
2023/12/07 06:50:52;;;;;;;;;;;;;;;;;;5055966;28;19974;-80
2023/12/07 06:53:19;;;;;;;;;;;;;;;;;;5056456;28;19924;-81
2023/12/07 06:55:45;;;;;;;;;;;;;;;;;;5054613;28;19948;-81
2023/12/07 06:58:12;;;;;;;;;;;;;;;;;;5053615;28;19931;-82
2023/12/07 07:00:38;;;;;;;;;;;;;;;;;;5053349;28;19925;-80
2023/12/07 07:03:06;;;;;;;;;;;;;;;;;;5052666;28;19967;-81
2023/12/07 07:05:32;;;;;;;;;;;;;;;;;;5050761;28;19925;-80
2023/12/07 07:07:58;;;;;;;;;;;;;;;;;;5054588;28;19996;-81
2023/12/07 07:10:24;;;;;;;;;;;;;;;;;;5054048;28;20020;-81
2023/12/07 07:12:51;;;;;;;;;;;;;;;;;;5054207;28;20021;-81
2023/12/07 07:15:18;;;;;;;;;;;;;;;;;;5053433;28;20337;-82
2023/12/07 07:17:44;;;;;;;;;;;;;;;;;;5052800;28;19929;-81
2023/12/07 07:20:11;;;;;;;;;;;;;;;;;;5053463;28;19925;-83
2023/12/07 07:22:37;;;;;;;;;;;;;;;;;;5054353;28;20377;-81
2023/12/07 07:25:04;;;;;;;;;;;;;;;;;;5053885;28;20012;-82
2023/12/07 07:27:30;;;;;;;;;;;;;;;;;;5056437;28;19925;-81
2023/12/07 07:29:57;;;;;;;;;;;;;;;;;;5057309;28;19931;-82
2023/12/07 07:32:24;;;;;;;;;;;;;;;;;;5057984;28;20015;-81
2023/12/07 07:34:50;;;;;;;;;;;;;;;;;;5055705;28;20402;-82
2023/12/07 07:37:16;;;;;;;;;;;;;;;;;;5057673;28;19925;-82
2023/12/07 07:39:42;;;;;;;;;;;;;;;;;;5057805;28;20290;-82
2023/12/07 07:42:09;;;;;;;;;;;;;;;;;;5057310;28;20019;-81
2023/12/07 07:44:35;;;;;;;;;;;;;;;;;;5056614;28;19924;-82
2023/12/07 07:47:01;;;;;;;;;;;;;;;;;;5057259;28;20019;-82
2023/12/07 07:49:27;;;;;;;;;;;;;;;;;;5057212;28;20007;-82
2023/12/07 07:51:54;;;;;;;;;;;;;;;;;;5056952;28;19924;-82
2023/12/07 07:54:22;;;;;;;;;;;;;;;;;;5056826;28;20030;-82
2023/12/07 07:56:48;;;;;;;;;;;;;;;;;;5059199;28;19980;-82
2023/12/07 07:59:14;;;;;;;;;;;;;;;;;;5058399;28;19925;-82
2023/12/07 08:01:41;;;;;;;;;;;;;;;;;;5058677;28;20020;-82
2023/12/07 08:04:07;;;;;;;;;;;;;;;;;;5057600;28;20015;-82
2023/12/07 08:06:34;;;;;;;;;;;;;;;;;;5058431;28;20036;-80
2023/12/07 08:09:00;;;;;;;;;;;;;;;;;;5058664;28;19925;-81
2023/12/07 08:11:26;;;;;;;;;;;;;;;;;;5057375;28;20395;-81
2023/12/07 08:13:52;;;;;;;;;;;;;;;;;;5058680;28;19947;-81
2023/12/07 08:16:19;;;;;;;;;;;;;;;;;;5058428;28;20015;-80
2023/12/07 08:18:47;;;;;;;;;;;;;;;;;;5058725;28;20287;-80
2023/12/07 08:21:13;;;;;;;;;;;;;;;;;;5056387;28;19924;-82
2023/12/07 08:23:40;;;;;;;;;;;;;;;;;;5058463;28;20011;-81
2023/12/07 08:26:07;;;;;;;;;;;;;;;;;;5057262;28;20349;-82
2023/12/07 08:28:33;;;;;;;;;;;;;;;;;;5058053;28;19924;-81
2023/12/07 08:30:59;;;;;;;;;;;;;;;;;;5058219;28;20027;-80
2023/12/07 08:33:25;;;;;;;;;;;;;;;;;;5058049;28;19931;-82
2023/12/07 08:35:55;;;;;;;;;;;;;;;;;;5057352;28;20012;-81
2023/12/07 08:38:21;;;;;;;;;;;;;;;;;;5056761;28;19925;-81
2023/12/07 08:40:48;;;;;;;;;;;;;;;;;;5057480;28;19935;-81
2023/12/07 08:43:14;;;;;;;;;;;;;;;;;;5058233;28;19992;-81
2023/12/07 08:45:40;;;;;;;;;;;;;;;;;;5058148;28;20003;-82
2023/12/07 08:48:06;;;;;;;;;;;;;;;;;;5058901;28;20347;-81
2023/12/07 08:50:34;;;;;;;;;;;;;;;;;;5057153;28;19931;-82
2023/12/07 08:53:00;;;;;;;;;;;;;;;;;;5058256;28;20020;-81
2023/12/07 08:55:28;;;;;;;;;;;;;;;;;;5057256;28;19931;-82
2023/12/07 08:57:54;;;;;;;;;;;;;;;;;;5056460;28;19925;-83
2023/12/07 09:00:25;;;;;;;;;;;;;;;;;;5057761;28;20009;-81
2023/12/07 09:02:51;;;;;;;;;;;;;;;;;;5057561;28;19931;-83
2023/12/07 09:05:17;;;;;;;;;;;;;;;;;;5057231;28;19964;-80
2023/12/07 09:07:44;;;;;;;;;;;;;;;;;;5057527;28;19925;-83
2023/12/07 09:10:12;;;;;;;;;;;;;;;;;;5055864;28;19932;-81
2023/12/07 09:12:39;;;;;;;;;;;;;;;;;;5057520;28;19928;-81
2023/12/07 09:15:07;;;;;;;;;;;;;;;;;;5057699;28;20015;-81
2023/12/07 09:17:33;;;;;;;;;;;;;;;;;;5057796;28;19932;-81
2023/12/07 09:20:01;;;;;;;;;;;;;;;;;;5056000;28;20432;-84
2023/12/07 09:22:27;;;;;;;;;;;;;;;;;;5055774;28;19974;-84
2023/12/07 09:24:53;;;;;;;;;;;;;;;;;;5056133;28;19924;-83
2023/12/07 09:27:19;;;;;;;;;;;;;;;;;;5056682;28;20023;-82
2023/12/07 09:29:48;;;;;;;;;;;;;;;;;;5056799;28;20015;-82
2023/12/07 09:32:14;;;;;;;;;;;;;;;;;;5055858;28;19947;-81
2023/12/07 09:34:40;;;;;;;;;;;;;;;;;;5056308;28;20100;-81
2023/12/07 09:37:06;;;;;;;;;;;;;;;;;;5056878;28;20015;-81
2023/12/07 09:39:33;;;;;;;;;;;;;;;;;;5056934;28;19925;-80
2023/12/07 09:42:00;;;;;;;;;;;;;;;;;;5055843;28;19925;-83
2023/12/07 09:44:26;;;;;;;;;;;;;;;;;;5055272;28;19925;-83
2023/12/07 09:46:52;;;;;;;;;;;;;;;;;;5056192;28;20457;-82
2023/12/07 09:49:19;;;;;;;;;;;;;;;;;;5055693;28;19943;-82
2023/12/07 09:51:45;;;;;;;;;;;;;;;;;;5056302;28;19989;-81
2023/12/07 09:54:12;;;;;;;;;;;;;;;;;;5056030;28;20082;-82
2023/12/07 09:56:38;;;;;;;;;;;;;;;;;;5057675;28;19996;-80
2023/12/07 09:59:04;;;;;;;;;;;;;;;;;;5056915;28;20013;-81
2023/12/07 10:01:31;;;;;;;;;;;;;;;;;;5056746;28;19982;-82
2023/12/07 10:03:57;;;;;;;;;;;;;;;;;;5057276;28;19988;-82
2023/12/07 10:06:25;;;;;;;;;;;;;;;;;;5055408;28;19933;-83
2023/12/07 10:08:51;;;;;;;;;;;;;;;;;;5056630;28;19928;-81
2023/12/07 10:11:18;;;;;;;;;;;;;;;;;;5055315;28;19925;-80
2023/12/07 10:13:44;;;;;;;;;;;;;;;;;;5055565;28;19925;-80
2023/12/07 10:16:11;;;;;;;;;;;;;;;;;;5056081;28;20011;-80
2023/12/07 10:18:39;;;;;;;;;;;;;;;;;;5056040;28;19931;-82
2023/12/07 10:21:05;;;;;;;;;;;;;;;;;;5055056;28;19956;-83
2023/12/07 10:23:32;;;;;;;;;;;;;;;;;;5055358;28;19924;-82
2023/12/07 10:25:59;;;;;;;;;;;;;;;;;;5056685;28;20020;-82
2023/12/07 10:28:25;;;;;;;;;;;;;;;;;;5056319;28;20011;-82
2023/12/07 10:30:51;;;;;;;;;;;;;;;;;;5055080;28;19925;-82
2023/12/07 10:33:18;;;;;;;;;;;;;;;;;;5054525;28;19932;-81
2023/12/07 10:35:44;;;;;;;;;;;;;;;;;;5055340;28;19929;-82
2023/12/07 10:38:11;;;;;;;;;;;;;;;;;;5056051;28;19975;-80
2023/12/07 10:40:37;;;;;;;;;;;;;;;;;;5055093;28;19924;-80
2023/12/07 10:43:04;;;;;;;;;;;;;;;;;;5055082;28;19932;-81
2023/12/07 10:45:31;;;;;;;;;;;;;;;;;;5055265;28;19925;-80
2023/12/07 10:47:57;;;;;;;;;;;;;;;;;;5056899;28;20024;-80
2023/12/07 10:50:23;;;;;;;;;;;;;;;;;;5055806;28;20015;-81
2023/12/07 10:52:50;;;;;;;;;;;;;;;;;;5056320;28;20023;-80
2023/12/07 10:55:16;;;;;;;;;;;;;;;;;;5054367;28;20008;-81
2023/12/07 10:57:42;;;;;;;;;;;;;;;;;;5056538;28;19925;-80
2023/12/07 11:00:08;;;;;;;;;;;;;;;;;;5056142;28;20011;-80
2023/12/07 11:02:35;;;;;;;;;;;;;;;;;;5060047;28;19974;-82
2023/12/07 11:05:01;;;;;;;;;;;;;;;;;;5058754;28;20012;-80
2023/12/07 11:07:28;;;;;;;;;;;;;;;;;;5060619;28;19925;-81
2023/12/07 11:09:54;;;;;;;;;;;;;;;;;;5059281;28;20015;-81
2023/12/07 11:12:20;;;;;;;;;;;;;;;;;;5058704;28;19935;-80
2023/12/07 11:14:46;;;;;;;;;;;;;;;;;;5059666;28;19931;-81
2023/12/07 11:17:13;;;;;;;;;;;;;;;;;;5058746;28;19971;-80
2023/12/07 11:19:41;;;;;;;;;;;;;;;;;;5059812;28;20012;-80
2023/12/07 11:22:08;;;;;;;;;;;;;;;;;;5060046;28;19929;-80
2023/12/07 11:24:37;;;;;;;;;;;;;;;;;;5059353;28;20344;-81
2023/12/07 11:27:03;;;;;;;;;;;;;;;;;;5059222;28;19932;-81
2023/12/07 11:29:29;;;;;;;;;;;;;;;;;;5058957;28;20437;-81
2023/12/07 11:31:56;;;;;;;;;;;;;;;;;;5059591;28;19932;-80
2023/12/07 11:34:22;;;;;;;;;;;;;;;;;;5058774;28;19958;-80
2023/12/07 11:36:48;;;;;;;;;;;;;;;;;;5059055;28;20015;-80
2023/12/07 11:39:15;;;;;;;;;;;;;;;;;;5058739;28;20019;-81
2023/12/07 11:41:41;;;;;;;;;;;;;;;;;;5060130;28;19992;-81
2023/12/07 11:44:07;;;;;;;;;;;;;;;;;;5059042;28;19983;-81
2023/12/07 11:46:34;;;;;;;;;;;;;;;;;;5057938;28;19924;-82
2023/12/07 11:49:00;;;;;;;;;;;;;;;;;;5058350;28;19975;-82
2023/12/07 11:51:27;;;;;;;;;;;;;;;;;;5058397;28;20391;-80
2023/12/07 11:53:53;;;;;;;;;;;;;;;;;;5058828;28;19932;-81
2023/12/07 11:56:21;;;;;;;;;;;;;;;;;;5058188;28;19925;-80
2023/12/07 11:58:47;;;;;;;;;;;;;;;;;;5059119;28;19924;-80
2023/12/07 12:01:14;;;;;;;;;;;;;;;;;;5058547;28;19932;-81
2023/12/07 12:03:40;;;;;;;;;;;;;;;;;;5058793;28;20019;-82
2023/12/07 12:06:08;;;;;;;;;;;;;;;;;;5056498;28;19924;-82
2023/12/07 12:08:34;;;;;;;;;;;;;;;;;;5059048;28;19932;-80
2023/12/07 12:11:00;;;;;;;;;;;;;;;;;;5058427;28;20379;-80
2023/12/07 12:13:26;;;;;;;;;;;;;;;;;;5058654;28;19932;-80
2023/12/07 12:15:53;;;;;;;;;;;;;;;;;;5056611;28;19924;-81
2023/12/07 12:18:20;;;;;;;;;;;;;;;;;;5058326;28;20012;-80
2023/12/07 12:20:46;;;;;;;;;;;;;;;;;;5058121;28;19932;-81
2023/12/07 12:23:13;;;;;;;;;;;;;;;;;;5056822;28;19925;-82
2023/12/07 12:25:39;;;;;;;;;;;;;;;;;;5056483;28;20270;-82
2023/12/07 12:28:06;;;;;;;;;;;;;;;;;;5054926;28;20011;-82
2023/12/07 12:30:33;;;;;;;;;;;;;;;;;;5056106;28;19956;-81
2023/12/07 12:35:20;;;;;;;;;;;;;;;;;;5099848;27;19924;-81
2023/12/07 12:37:46;;;;;;;;;;;;;;;;;;5073514;28;19932;-82
2023/12/07 12:40:13;;;;;;;;;;;;;;;;;;5070577;28;19925;-83
2023/12/07 12:42:39;;;;;;;;;;;;;;;;;;5071622;28;19935;-80
2023/12/07 12:45:05;;;;;;;;;;;;;;;;;;5072304;28;19924;-81
2023/12/07 12:47:32;;;;;;;;;;;;;;;;;;5072633;28;19928;-81
2023/12/07 12:49:59;;;;;;;;;;;;;;;;;;5072083;28;19924;-81
2023/12/07 12:52:26;;;;;;;;;;;;;;;;;;5072114;28;19924;-81
2023/12/07 12:54:53;;;;;;;;;;;;;;;;;;5071512;28;19924;-82
2023/12/07 12:57:19;;;;;;;;;;;;;;;;;;5073012;28;20015;-82
2023/12/07 12:59:45;;;;;;;;;;;;;;;;;;5071147;28;19925;-80
2023/12/07 13:02:11;;;;;;;;;;;;;;;;;;5072108;28;20004;-81
2023/12/07 13:04:38;;;;;;;;;;;;;;;;;;5070562;28;19925;-81
2023/12/07 13:07:04;;;;;;;;;;;;;;;;;;5072205;28;19975;-82
2023/12/07 13:09:33;;;;;;;;;;;;;;;;;;5071807;28;19924;-82
2023/12/07 13:12:00;;;;;;;;;;;;;;;;;;5072150;28;19971;-81
2023/12/07 13:14:27;;;;;;;;;;;;;;;;;;5071454;28;20426;-83
2023/12/07 13:16:53;;;;;;;;;;;;;;;;;;5072635;28;19925;-81
2023/12/07 13:19:21;;;;;;;;;;;;;;;;;;5069884;28;19939;-81
2023/12/07 13:21:47;;;;;;;;;;;;;;;;;;5072546;28;20302;-81
2023/12/07 13:24:14;;;;;;;;;;;;;;;;;;5071482;28;20018;-81
2023/12/07 13:26:40;;;;;;;;;;;;;;;;;;5072548;28;19925;-82
2023/12/07 13:29:07;;;;;;;;;;;;;;;;;;5071788;28;20477;-81
2023/12/07 13:31:33;;;;;;;;;;;;;;;;;;5072340;28;20027;-81
2023/12/07 13:34:00;;;;;;;;;;;;;;;;;;5067173;28;20023;-81
2023/12/07 13:36:29;;;;;;;;;;;;;;;;;;5055932;28;20028;-81
2023/12/07 13:38:55;;;;;;;;;;;;;;;;;;5071703;28;19932;-82
2023/12/07 13:41:21;;;;;;;;;;;;;;;;;;5069907;28;19936;-82
2023/12/07 13:43:48;;;;;;;;;;;;;;;;;;5071311;28;19925;-81
2023/12/07 13:46:15;;;;;;;;;;;;;;;;;;5059992;28;19924;-82
2023/12/07 13:48:41;;;;;;;;;;;;;;;;;;5057829;28;19928;-83
2023/12/07 13:51:08;;;;;;;;;;;;;;;;;;5057656;28;20011;-83
2023/12/07 13:53:34;;;;;;;;;;;;;;;;;;5057934;28;19924;-82
2023/12/07 13:56:00;;;;;;;;;;;;;;;;;;5057199;28;19925;-82
2023/12/07 13:58:26;;;;;;;;;;;;;;;;;;5057976;28;19924;-81
2023/12/07 14:00:53;;;;;;;;;;;;;;;;;;5057223;28;19931;-82
2023/12/07 14:03:19;;;;;;;;;;;;;;;;;;5057723;28;19984;-83
2023/12/07 14:05:46;;;;;;;;;;;;;;;;;;5057035;28;20015;-83
2023/12/07 14:08:12;;;;;;;;;;;;;;;;;;5057678;28;20387;-82
2023/12/07 14:10:38;;;;;;;;;;;;;;;;;;5057482;28;20012;-83
2023/12/07 14:13:07;;;;;;;;;;;;;;;;;;5057934;28;20027;-82
2023/12/07 14:15:35;;;;;;;;;;;;;;;;;;5056930;28;19932;-82
2023/12/07 14:18:02;;;;;;;;;;;;;;;;;;5056055;28;19929;-83
2023/12/07 14:20:28;;;;;;;;;;;;;;;;;;5055706;28;19932;-82
2023/12/07 14:22:54;;;;;;;;;;;;;;;;;;5057489;28;19924;-82
2023/12/07 14:25:21;;;;;;;;;;;;;;;;;;5057459;28;19924;-83
2023/12/07 14:27:47;;;;;;;;;;;;;;;;;;5057731;28;20355;-82
2023/12/07 14:30:13;;;;;;;;;;;;;;;;;;5057093;28;19984;-82
2023/12/07 14:32:41;;;;;;;;;;;;;;;;;;5057668;28;20016;-83
2023/12/07 14:35:07;;;;;;;;;;;;;;;;;;5056478;28;19925;-83
2023/12/07 14:37:33;;;;;;;;;;;;;;;;;;5057201;28;19983;-83
2023/12/07 14:39:59;;;;;;;;;;;;;;;;;;5056913;28;20358;-82
2023/12/07 14:42:26;;;;;;;;;;;;;;;;;;5057385;28;20023;-83
2023/12/07 14:44:52;;;;;;;;;;;;;;;;;;5055400;28;19929;-82
2023/12/07 14:47:19;;;;;;;;;;;;;;;;;;5057223;28;20004;-82
2023/12/07 14:49:46;;;;;;;;;;;;;;;;;;5055257;28;19925;-82
2023/12/07 14:52:12;;;;;;;;;;;;;;;;;;5057037;28;20321;-82
2023/12/07 14:54:38;;;;;;;;;;;;;;;;;;5055206;28;19925;-83
2023/12/07 14:57:08;;;;;;;;;;;;;;;;;;5055895;28;20019;-82
2023/12/07 14:59:34;;;;;;;;;;;;;;;;;;5056256;28;19979;-82
2023/12/07 15:02:01;;;;;;;;;;;;;;;;;;5056764;28;19931;-82
2023/12/07 15:04:26;;;;;;;;;;;;;;;;;;5055848;28;19925;-82
2023/12/07 15:06:54;;;;;;;;;;;;;;;;;;5057170;28;19928;-82
2023/12/07 15:09:21;;;;;;;;;;;;;;;;;;5056065;28;19929;-81
2023/12/07 15:11:47;;;;;;;;;;;;;;;;;;5056829;28;19931;-83
2023/12/07 15:14:16;;;;;;;;;;;;;;;;;;5056118;28;19924;-82
2023/12/07 15:16:42;;;;;;;;;;;;;;;;;;5055824;28;19932;-82
2023/12/07 15:19:09;;;;;;;;;;;;;;;;;;5054431;28;20307;-82
2023/12/07 15:21:35;;;;;;;;;;;;;;;;;;5056449;28;20015;-82
2023/12/07 15:24:03;;;;;;;;;;;;;;;;;;5056189;28;20015;-81
2023/12/07 15:26:30;;;;;;;;;;;;;;;;;;5056387;28;19931;-82
2023/12/07 15:28:56;;;;;;;;;;;;;;;;;;5058717;28;19925;-80
2023/12/07 15:31:22;;;;;;;;;;;;;;;;;;5061926;28;20401;-80
2023/12/07 15:33:48;;;;;;;;;;;;;;;;;;5063981;28;19988;-81
2023/12/07 15:36:15;;;;;;;;;;;;;;;;;;5060955;28;19925;-81
2023/12/07 15:38:42;;;;;;;;;;;;;;;;;;5061778;28;19925;-81
2023/12/07 15:41:09;;;;;;;;;;;;;;;;;;5061368;28;20011;-80
2023/12/07 15:43:35;;;;;;;;;;;;;;;;;;5060610;28;20015;-81
2023/12/07 15:46:03;;;;;;;;;;;;;;;;;;5056646;28;20019;-81
2023/12/07 15:48:29;;;;;;;;;;;;;;;;;;5055572;28;19925;-81
2023/12/07 15:50:55;;;;;;;;;;;;;;;;;;5057767;28;19925;-81
2023/12/07 15:53:22;;;;;;;;;;;;;;;;;;5058599;28;20020;-81
2023/12/07 15:55:48;;;;;;;;;;;;;;;;;;5053969;28;19925;-82
2023/12/07 15:58:17;;;;;;;;;;;;;;;;;;5056252;28;20015;-82
2023/12/07 16:00:43;;;;;;;;;;;;;;;;;;5053265;28;19995;-81
2023/12/07 16:03:10;;;;;;;;;;;;;;;;;;5056566;28;20355;-80
2023/12/07 16:05:36;;;;;;;;;;;;;;;;;;5055376;28;19988;-82
2023/12/07 16:08:02;;;;;;;;;;;;;;;;;;5055166;28;19931;-81
2023/12/07 16:10:29;;;;;;;;;;;;;;;;;;5054742;28;19947;-82
2023/12/07 16:12:55;;;;;;;;;;;;;;;;;;5055402;28;20386;-81
2023/12/07 16:15:21;;;;;;;;;;;;;;;;;;5054629;28;19925;-81
2023/12/07 16:17:48;;;;;;;;;;;;;;;;;;5055242;28;20019;-81
2023/12/07 16:20:16;;;;;;;;;;;;;;;;;;5054504;28;19925;-83
2023/12/07 16:22:42;;;;;;;;;;;;;;;;;;5055281;28;19950;-81
2023/12/07 16:25:09;;;;;;;;;;;;;;;;;;5052150;28;19925;-81
2023/12/07 16:27:35;;;;;;;;;;;;;;;;;;5054714;28;20385;-80
2023/12/07 16:30:01;;;;;;;;;;;;;;;;;;5054542;28;19931;-81
2023/12/07 16:32:27;;;;;;;;;;;;;;;;;;5054514;28;19975;-81
2023/12/07 16:34:54;;;;;;;;;;;;;;;;;;5053491;28;19951;-81
2023/12/07 16:37:20;;;;;;;;;;;;;;;;;;5054210;28;19925;-83
2023/12/07 16:39:46;;;;;;;;;;;;;;;;;;5054329;28;19925;-81
2023/12/07 16:42:12;;;;;;;;;;;;;;;;;;5055642;28;20351;-84